createdAt,value
2017-09-02T00:02:05.539Z,6.60
2017-09-02T00:04:33.908Z,6.47
2017-09-02T00:07:01.519Z,5.40
2017-09-02T00:09:29.028Z,5.40
2017-09-02T00:11:56.583Z,5.93
2017-09-02T00:14:24.369Z,5.50
2017-09-02T00:16:52.588Z,5.17
2017-09-02T00:19:20.199Z,4.90
2017-09-02T00:21:47.696Z,4.67
2017-09-02T00:26:48.303Z,4.87
2017-09-02T00:29:15.853Z,4.00
2017-09-02T00:31:43.348Z,4.83
2017-09-02T00:34:10.852Z,4.43
2017-09-02T00:36:38.559Z,4.73
2017-09-02T00:39:06.308Z,4.13
2017-09-02T00:41:33.840Z,5.17
2017-09-02T00:44:01.507Z,4.33
2017-09-02T00:46:29.294Z,3.70
2017-09-02T00:48:57.043Z,4.30
2017-09-02T00:51:24.567Z,3.90
2017-09-02T00:53:52.142Z,4.73
2017-09-02T00:56:19.906Z,4.00
2017-09-02T00:58:47.468Z,4.40
2017-09-02T01:01:15.275Z,4.27
2017-09-02T01:03:42.768Z,4.40
2017-09-02T01:06:10.273Z,4.87
2017-09-02T01:08:37.768Z,3.83
2017-09-02T01:11:05.322Z,4.20
2017-09-02T01:13:32.835Z,4.03
2017-09-02T01:16:00.992Z,4.03
2017-09-02T01:18:28.687Z,4.43
2017-09-02T01:20:56.180Z,3.83
2017-09-02T01:23:24.507Z,4.57
2017-09-02T01:25:51.995Z,4.30
2017-09-02T01:28:19.605Z,4.40
2017-09-02T01:30:47.096Z,4.70
2017-09-02T01:33:14.604Z,4.90
2017-09-02T01:35:42.128Z,4.60
2017-09-02T01:38:09.887Z,4.03
2017-09-02T01:40:37.380Z,4.33
2017-09-02T01:43:05.107Z,4.33
2017-09-02T01:45:32.724Z,4.40
2017-09-02T01:48:00.280Z,4.37
2017-09-02T01:50:27.792Z,4.13
2017-09-02T01:52:55.280Z,5.23
2017-09-02T01:55:22.792Z,5.07
2017-09-02T01:57:50.618Z,4.20
2017-09-02T02:00:18.112Z,4.80
2017-09-02T02:02:45.613Z,5.27
2017-09-02T02:05:13.122Z,4.43
2017-09-02T02:07:40.620Z,4.87
2017-09-02T02:10:08.134Z,4.50
2017-09-02T02:12:35.891Z,5.43
2017-09-02T02:15:03.398Z,4.60
2017-09-02T02:17:31.086Z,4.93
2017-09-02T02:19:58.595Z,4.70
2017-09-02T02:22:26.112Z,4.30
2017-09-02T02:24:53.800Z,4.77
2017-09-02T02:27:21.295Z,5.03
2017-09-02T02:29:48.809Z,4.40
2017-09-02T02:32:16.425Z,4.80
2017-09-02T02:34:43.928Z,4.23
2017-09-02T02:37:11.431Z,5.30
2017-09-02T02:39:38.956Z,4.70
2017-09-02T02:42:06.461Z,5.50
2017-09-02T02:44:34.031Z,5.33
2017-09-02T02:47:01.550Z,4.90
2017-09-02T02:49:29.045Z,7.10
2017-09-02T02:51:56.731Z,5.77
2017-09-02T02:54:24.253Z,6.23
2017-09-02T02:56:52.410Z,5.73
2017-09-02T02:59:19.928Z,5.53
2017-09-02T03:01:47.436Z,5.50
2017-09-02T03:04:14.932Z,4.90
2017-09-02T03:06:42.640Z,5.20
2017-09-02T03:09:10.135Z,5.77
2017-09-02T03:11:37.655Z,5.37
2017-09-02T03:14:05.155Z,6.20
2017-09-02T03:16:32.831Z,5.30
2017-09-02T03:19:00.777Z,4.87
2017-09-02T03:21:28.344Z,5.30
2017-09-02T03:23:55.867Z,5.60
2017-09-02T03:26:23.462Z,5.90
2017-09-02T03:28:51.035Z,4.70
2017-09-02T03:31:18.540Z,5.30
2017-09-02T03:33:46.224Z,4.73
2017-09-02T03:36:13.732Z,4.90
2017-09-02T03:38:41.241Z,5.90
2017-09-02T03:41:08.933Z,5.57
2017-09-02T03:43:36.432Z,6.40
2017-09-02T03:46:04.307Z,5.43
2017-09-02T03:48:32.612Z,6.63
2017-09-02T03:51:00.127Z,6.03
2017-09-02T03:53:27.770Z,6.30
2017-09-02T03:55:55.544Z,6.13
2017-09-02T03:58:23.287Z,7.10
2017-09-02T04:00:51.050Z,6.50
2017-09-02T04:03:18.823Z,7.37
2017-09-02T04:05:46.328Z,7.43
2017-09-02T04:08:13.829Z,6.40
2017-09-02T04:10:41.476Z,6.30
2017-09-02T04:13:09.240Z,6.33
2017-09-02T04:15:36.751Z,6.90
2017-09-02T04:18:04.470Z,6.03
2017-09-02T04:20:32.003Z,7.53
2017-09-02T04:22:59.515Z,7.10
2017-09-02T04:25:27.130Z,7.57
2017-09-02T04:27:54.780Z,6.90
2017-09-02T04:30:22.542Z,7.73
2017-09-02T04:32:50.024Z,6.57
2017-09-02T04:35:17.532Z,7.30
2017-09-02T04:37:45.348Z,7.43
2017-09-02T04:40:13.109Z,7.90
2017-09-02T04:42:40.611Z,6.93
2017-09-02T04:45:08.204Z,7.00
2017-09-02T04:47:35.802Z,6.67
2017-09-02T04:50:03.571Z,7.80
2017-09-02T04:52:31.307Z,7.60
2017-09-02T04:54:58.816Z,6.90
2017-09-02T04:57:26.342Z,7.50
2017-09-02T04:59:53.991Z,8.00
2017-09-02T05:02:21.627Z,8.10
2017-09-02T05:04:49.204Z,8.03
2017-09-02T05:07:17.583Z,7.10
2017-09-02T05:09:45.225Z,8.00
2017-09-02T05:12:12.778Z,7.97
2017-09-02T05:14:40.583Z,14.57
2017-09-02T05:17:08.521Z,8.40
2017-09-02T05:19:36.008Z,7.00
2017-09-02T05:22:03.571Z,7.63
2017-09-02T05:24:31.075Z,8.37
2017-09-02T05:26:58.755Z,8.07
2017-09-02T05:29:26.279Z,8.00
2017-09-02T05:31:54.014Z,7.80
2017-09-02T05:34:21.756Z,8.90
2017-09-02T05:36:49.252Z,8.70
2017-09-02T05:39:16.993Z,7.37
2017-09-02T05:41:44.490Z,8.43
2017-09-02T05:44:12.019Z,8.03
2017-09-02T05:46:39.534Z,8.60
2017-09-02T05:49:07.045Z,9.47
2017-09-02T05:51:34.564Z,7.60
2017-09-02T05:54:02.502Z,8.73
2017-09-02T05:56:30.277Z,9.00
2017-09-02T05:58:57.775Z,8.60
2017-09-02T06:01:25.498Z,9.07
2017-09-02T06:03:53.008Z,9.20
2017-09-02T06:06:20.532Z,7.67
2017-09-02T06:08:48.073Z,8.60
2017-09-02T06:11:15.592Z,7.87
2017-09-02T06:13:43.963Z,9.17
2017-09-02T06:16:11.580Z,9.50
2017-09-02T06:18:39.352Z,9.70
2017-09-02T06:21:06.884Z,12.70
2017-09-02T06:23:34.572Z,7.73
2017-09-02T06:26:02.103Z,9.23
2017-09-02T06:28:29.716Z,9.00
2017-09-02T06:30:57.221Z,7.90
2017-09-02T06:33:24.723Z,9.10
2017-09-02T06:35:52.232Z,8.90
2017-09-02T06:38:19.893Z,8.80
2017-09-02T06:40:47.400Z,8.70
2017-09-02T06:43:14.917Z,9.40
2017-09-02T06:45:42.635Z,10.33
2017-09-02T06:48:10.127Z,9.40
2017-09-02T06:50:38.092Z,9.77
2017-09-02T06:53:05.896Z,9.70
2017-09-02T06:55:33.411Z,9.50
2017-09-02T06:58:01.132Z,12.37
2017-09-02T07:00:28.650Z,10.10
2017-09-02T07:02:56.515Z,15.03
2017-09-02T07:05:24.083Z,12.90
2017-09-02T07:07:52.203Z,10.00
2017-09-02T07:10:19.950Z,9.40
2017-09-02T07:12:47.465Z,9.40
2017-09-02T07:15:15.187Z,8.57
2017-09-02T07:17:42.911Z,7.40
2017-09-02T07:20:10.675Z,7.10
2017-09-02T07:22:38.194Z,8.17
2017-09-02T07:25:05.895Z,7.90
2017-09-02T07:27:33.659Z,6.93
2017-09-02T07:30:01.187Z,7.40
2017-09-02T07:32:28.882Z,8.40
2017-09-02T07:34:56.644Z,7.50
2017-09-02T07:37:24.407Z,8.03
2017-09-02T07:39:52.172Z,7.30
2017-09-02T07:42:19.955Z,6.80
2017-09-02T07:44:47.625Z,7.50
2017-09-02T07:47:15.143Z,6.97
2017-09-02T07:49:42.920Z,6.77
2017-09-02T07:52:10.696Z,6.50
2017-09-02T07:54:38.192Z,17.20
2017-09-02T07:57:06.002Z,7.20
2017-09-02T07:59:33.504Z,12.10
2017-09-02T08:02:01.095Z,7.23
2017-09-02T08:04:28.597Z,6.30
2017-09-02T08:06:56.218Z,6.80
2017-09-02T08:09:23.723Z,7.10
2017-09-02T08:11:51.232Z,7.37
2017-09-02T08:14:18.732Z,7.20
2017-09-02T08:16:46.515Z,8.20
2017-09-02T08:19:14.021Z,7.07
2017-09-02T08:21:41.673Z,8.90
2017-09-02T08:24:09.192Z,7.70
2017-09-02T08:26:36.804Z,6.40
2017-09-02T08:29:04.371Z,5.40
2017-09-02T08:31:31.867Z,6.43
2017-09-02T08:33:59.613Z,5.37
2017-09-02T08:36:27.355Z,6.27
2017-09-02T08:38:54.888Z,7.30
2017-09-02T08:41:22.576Z,6.40
2017-09-02T08:43:50.215Z,22.73
2017-09-02T08:46:17.704Z,5.00
2017-09-02T08:48:45.216Z,5.30
2017-09-02T08:51:12.716Z,6.70
2017-09-02T08:53:40.473Z,4.10
2017-09-02T08:56:07.983Z,8.23
2017-09-02T08:58:35.583Z,4.10
2017-09-02T09:01:03.153Z,4.97
2017-09-02T09:03:30.647Z,4.03
2017-09-02T09:05:58.156Z,3.27
2017-09-02T09:08:26.288Z,4.30
2017-09-02T09:10:54.149Z,2.83
2017-09-02T09:13:21.963Z,3.23
2017-09-02T09:15:49.492Z,4.07
2017-09-02T09:18:17.165Z,2.83
2017-09-02T09:20:44.881Z,2.97
2017-09-02T09:23:12.376Z,3.27
2017-09-02T09:25:40.276Z,4.67
2017-09-02T09:28:07.932Z,2.87
2017-09-02T09:30:35.432Z,2.93
2017-09-02T09:33:02.970Z,1.97
2017-09-02T09:35:30.656Z,3.10
2017-09-02T09:37:58.204Z,2.10
2017-09-02T09:40:25.828Z,3.70
2017-09-02T09:42:53.627Z,2.87
2017-09-02T09:45:21.382Z,3.37
2017-09-02T09:47:48.898Z,3.00
2017-09-02T09:50:16.580Z,4.40
2017-09-02T09:52:44.087Z,2.13
2017-09-02T09:55:12.079Z,2.40
2017-09-02T09:57:39.868Z,2.33
2017-09-02T10:00:07.390Z,2.50
2017-09-02T10:02:34.911Z,2.10
2017-09-02T10:05:02.543Z,2.30
2017-09-02T10:07:30.037Z,2.50
2017-09-02T10:09:57.542Z,3.50
2017-09-02T10:12:25.164Z,2.50
2017-09-02T10:14:52.686Z,2.30
2017-09-02T10:17:20.175Z,2.47
2017-09-02T10:19:47.687Z,2.20
2017-09-02T10:22:15.378Z,3.30
2017-09-02T10:24:42.888Z,3.30
2017-09-02T10:27:10.395Z,4.37
2017-09-02T10:29:38.031Z,2.97
2017-09-02T10:32:05.532Z,2.17
2017-09-02T10:34:33.247Z,2.47
2017-09-02T10:37:00.756Z,1.63
2017-09-02T10:39:28.248Z,2.30
2017-09-02T10:41:55.868Z,2.10
2017-09-02T10:44:23.383Z,2.53
2017-09-02T10:46:51.147Z,1.80
2017-09-02T10:49:18.913Z,2.03
2017-09-02T10:51:46.694Z,2.10
2017-09-02T10:54:15.372Z,2.33
2017-09-02T10:56:43.128Z,2.37
2017-09-02T10:59:10.627Z,2.27
2017-09-02T11:01:38.346Z,2.73
2017-09-02T11:04:05.851Z,1.80
2017-09-02T11:06:33.363Z,2.40
2017-09-02T11:09:00.859Z,2.73
2017-09-02T11:11:28.503Z,2.87
2017-09-02T11:13:56.240Z,2.60
2017-09-02T11:16:23.806Z,2.47
2017-09-02T11:18:52.087Z,2.10
2017-09-02T11:21:19.602Z,1.90
2017-09-02T11:23:47.123Z,2.10
2017-09-02T11:26:14.600Z,2.50
2017-09-02T11:28:42.207Z,2.13
2017-09-02T11:31:09.977Z,2.90
2017-09-02T11:33:37.471Z,2.13
2017-09-02T11:36:05.156Z,2.23
2017-09-02T11:38:32.660Z,2.17
2017-09-02T11:41:00.170Z,2.07
2017-09-02T11:43:27.677Z,1.77
2017-09-02T11:45:55.322Z,2.33
2017-09-02T11:48:22.844Z,2.37
2017-09-02T11:50:50.543Z,1.90
2017-09-02T11:53:18.423Z,2.93
2017-09-02T11:55:46.044Z,3.07
2017-09-02T11:58:13.839Z,1.93
2017-09-02T12:00:41.359Z,2.50
2017-09-02T12:03:08.847Z,2.47
2017-09-02T12:05:36.356Z,2.50
2017-09-02T12:08:04.888Z,2.03
2017-09-02T12:10:32.615Z,2.53
2017-09-02T12:13:00.124Z,3.00
2017-09-02T12:15:27.899Z,2.67
2017-09-02T12:17:55.399Z,2.40
2017-09-02T12:20:22.919Z,2.97
2017-09-02T12:22:50.699Z,2.40
2017-09-02T12:25:18.320Z,1.70
2017-09-02T12:27:46.103Z,2.00
2017-09-02T12:30:13.839Z,2.27
2017-09-02T12:32:41.551Z,1.90
2017-09-02T12:35:09.816Z,1.93
2017-09-02T12:37:37.466Z,2.33
2017-09-02T12:40:04.951Z,3.13
2017-09-02T12:42:32.712Z,3.93
2017-09-02T12:45:00.359Z,3.53
2017-09-02T12:47:27.906Z,2.50
2017-09-02T12:49:55.959Z,2.43
2017-09-02T12:52:23.461Z,2.33
2017-09-02T12:54:51.127Z,3.10
2017-09-02T12:57:18.655Z,2.60
2017-09-02T12:59:46.146Z,2.70
2017-09-02T13:02:13.659Z,2.63
2017-09-02T13:04:41.186Z,2.97
2017-09-02T13:07:08.760Z,3.13
2017-09-02T13:09:36.263Z,3.37
2017-09-02T13:12:03.775Z,2.10
2017-09-02T13:14:31.295Z,2.50
2017-09-02T13:16:58.892Z,2.67
2017-09-02T13:19:26.416Z,2.63
2017-09-02T13:21:54.371Z,2.00
2017-09-02T13:24:21.894Z,2.40
2017-09-02T13:26:49.397Z,3.43
2017-09-02T13:29:17.366Z,2.83
2017-09-02T13:31:45.169Z,3.40
2017-09-02T13:34:12.931Z,7.20
2017-09-02T13:36:40.452Z,2.60
2017-09-02T13:39:08.039Z,2.70
2017-09-02T13:41:35.608Z,2.87
2017-09-02T13:44:03.363Z,2.63
2017-09-02T13:46:30.967Z,2.07
2017-09-02T13:48:58.592Z,2.83
2017-09-02T13:51:26.355Z,3.40
2017-09-02T13:53:53.863Z,6.93
2017-09-02T13:56:21.576Z,3.50
2017-09-02T13:58:49.073Z,3.93
2017-09-02T14:01:16.795Z,3.03
2017-09-02T14:03:44.292Z,3.07
2017-09-02T14:06:11.796Z,3.03
2017-09-02T14:08:39.490Z,2.10
2017-09-02T14:11:07.014Z,2.93
2017-09-02T14:13:34.512Z,2.13
2017-09-02T14:16:02.141Z,8.13
2017-09-02T14:18:29.686Z,2.40
2017-09-02T14:20:57.188Z,2.27
2017-09-02T14:23:25.879Z,2.40
2017-09-02T14:25:53.511Z,2.97
2017-09-02T14:28:21.008Z,4.47
2017-09-02T14:30:48.508Z,2.80
2017-09-02T14:33:16.033Z,2.17
2017-09-02T14:35:43.643Z,2.27
2017-09-02T14:38:11.178Z,2.20
2017-09-02T14:40:38.830Z,2.57
2017-09-02T14:43:06.340Z,3.13
2017-09-02T14:45:33.858Z,2.70
2017-09-02T14:48:01.519Z,2.10
2017-09-02T14:50:29.185Z,2.43
2017-09-02T14:52:56.667Z,2.80
2017-09-02T14:55:24.215Z,2.50
2017-09-02T14:57:51.979Z,5.50
2017-09-02T15:00:19.758Z,3.10
2017-09-02T15:02:47.264Z,3.30
2017-09-02T15:05:14.985Z,3.30
2017-09-02T15:07:42.507Z,7.40
2017-09-02T15:10:10.029Z,2.50
2017-09-02T15:12:37.640Z,3.40
2017-09-02T15:15:05.424Z,2.13
2017-09-02T15:17:33.002Z,2.43
2017-09-02T15:20:00.891Z,2.97
2017-09-02T15:22:28.691Z,2.93
2017-09-02T15:24:56.459Z,2.20
2017-09-02T15:27:23.971Z,2.43
2017-09-02T15:29:51.704Z,3.00
2017-09-02T15:32:19.291Z,2.33
2017-09-02T15:34:46.900Z,2.30
2017-09-02T15:37:14.613Z,2.60
2017-09-02T15:39:42.447Z,2.10
2017-09-02T15:42:09.948Z,2.47
2017-09-02T15:44:37.456Z,2.40
2017-09-02T15:47:04.976Z,2.53
2017-09-02T15:49:32.481Z,2.10
2017-09-02T15:52:00.016Z,2.13
2017-09-02T15:54:27.542Z,2.40
2017-09-02T15:56:55.067Z,2.30
2017-09-02T15:59:22.671Z,2.23
2017-09-02T16:01:50.163Z,2.37
2017-09-02T16:04:17.702Z,2.13
2017-09-02T16:06:45.370Z,2.30
2017-09-02T16:09:12.869Z,1.90
2017-09-02T16:11:40.587Z,2.63
2017-09-02T16:14:08.855Z,2.77
2017-09-02T16:16:36.375Z,2.70
2017-09-02T16:19:03.886Z,2.23
2017-09-02T16:21:31.659Z,2.60
2017-09-02T16:23:59.611Z,2.23
2017-09-02T16:26:27.136Z,2.90
2017-09-02T16:28:54.635Z,3.63
2017-09-02T16:31:22.403Z,2.70
2017-09-02T16:33:50.771Z,2.90
2017-09-02T16:36:18.379Z,2.40
2017-09-02T16:38:45.967Z,3.37
2017-09-02T16:41:13.456Z,2.23
2017-09-02T16:43:40.961Z,4.77
2017-09-02T16:46:08.674Z,2.50
2017-09-02T16:48:36.180Z,2.50
2017-09-02T16:51:03.707Z,4.40
2017-09-02T16:53:31.220Z,3.20
2017-09-02T16:55:58.752Z,3.13
2017-09-02T16:58:26.260Z,3.10
2017-09-02T17:00:53.751Z,3.50
2017-09-02T17:03:21.259Z,3.63
2017-09-02T17:05:48.767Z,2.77
2017-09-02T17:08:16.383Z,4.27
2017-09-02T17:10:43.898Z,6.20
2017-09-02T17:13:11.599Z,3.30
2017-09-02T17:15:39.096Z,3.57
2017-09-02T17:18:06.612Z,4.27
2017-09-02T17:20:34.112Z,3.10
2017-09-02T17:23:01.728Z,4.60
2017-09-02T17:25:29.251Z,2.60
2017-09-02T17:27:56.942Z,2.70
2017-09-02T17:30:24.449Z,3.60
2017-09-02T17:32:52.188Z,2.20
2017-09-02T17:35:19.710Z,2.70
2017-09-02T17:37:47.424Z,2.47
2017-09-02T17:40:14.950Z,3.20
2017-09-02T17:42:42.587Z,2.43
2017-09-02T17:45:10.387Z,3.33
2017-09-02T17:47:37.905Z,2.43
2017-09-02T17:50:05.419Z,2.63
2017-09-02T17:52:33.027Z,2.63
2017-09-02T17:55:00.531Z,3.20
2017-09-02T17:57:28.053Z,2.70
2017-09-02T17:59:55.551Z,3.17
2017-09-02T18:02:23.056Z,4.03
2017-09-02T18:04:50.616Z,2.83
2017-09-02T18:07:18.128Z,2.50
2017-09-02T18:09:45.651Z,2.70
2017-09-02T18:12:13.224Z,2.33
2017-09-02T18:14:40.819Z,2.53
2017-09-02T18:17:08.339Z,2.60
2017-09-02T18:19:36.231Z,3.20
2017-09-02T18:22:03.748Z,2.73
2017-09-02T18:24:32.052Z,2.83
2017-09-02T18:26:59.560Z,3.00
2017-09-02T18:29:27.983Z,2.60
2017-09-02T18:31:55.524Z,2.90
2017-09-02T18:34:23.028Z,2.87
2017-09-02T18:36:51.109Z,3.07
2017-09-02T18:39:18.608Z,3.03
2017-09-02T18:41:46.213Z,2.70
2017-09-02T18:44:13.717Z,2.80
2017-09-02T18:46:41.235Z,3.10
2017-09-02T18:49:08.739Z,2.83
2017-09-02T18:51:36.247Z,3.60
2017-09-02T18:54:03.779Z,3.23
2017-09-02T18:56:31.287Z,3.47
2017-09-02T18:58:58.796Z,3.23
2017-09-02T19:01:26.439Z,3.73
2017-09-02T19:03:53.974Z,3.50
2017-09-02T19:06:21.679Z,3.10
2017-09-02T19:08:49.204Z,3.23
2017-09-02T19:11:16.859Z,3.27
2017-09-02T19:13:44.363Z,3.20
2017-09-02T19:16:11.859Z,2.77
2017-09-02T19:18:39.591Z,3.70
2017-09-02T19:21:07.095Z,3.87
2017-09-02T19:23:34.617Z,4.43
2017-09-02T19:26:02.608Z,4.00
2017-09-02T19:28:30.096Z,3.40
2017-09-02T19:30:57.612Z,4.00
2017-09-02T19:33:25.115Z,4.40
2017-09-02T19:35:53.822Z,4.13
2017-09-02T19:38:21.437Z,3.90
2017-09-02T19:40:49.068Z,4.40
2017-09-02T19:43:16.592Z,3.90
2017-09-02T19:45:44.108Z,5.00
2017-09-02T19:48:11.785Z,4.50
2017-09-02T19:50:40.067Z,5.40
2017-09-02T19:53:08.834Z,4.90
2017-09-02T19:55:36.372Z,5.37
2017-09-02T19:58:04.114Z,5.57
2017-09-02T20:00:31.759Z,5.20
2017-09-02T20:02:59.296Z,4.50
2017-09-02T20:05:27.079Z,4.70
2017-09-02T20:07:54.839Z,5.40
2017-09-02T20:10:22.346Z,4.87
2017-09-02T20:12:50.060Z,5.50
2017-09-02T20:15:17.842Z,5.03
2017-09-02T20:17:45.603Z,5.33
2017-09-02T20:20:13.104Z,4.70
2017-09-02T20:22:40.644Z,6.20
2017-09-02T20:25:08.263Z,5.43
2017-09-02T20:27:36.027Z,4.80
2017-09-02T20:30:03.792Z,4.87
2017-09-02T20:32:31.322Z,5.77
2017-09-02T20:34:59.041Z,5.60
2017-09-02T20:37:27.447Z,6.27
2017-09-02T20:39:54.952Z,7.03
2017-09-02T20:42:22.612Z,5.97
2017-09-02T20:44:50.119Z,6.40
2017-09-02T20:47:17.836Z,6.80
2017-09-02T20:49:45.343Z,5.83
2017-09-02T20:52:12.848Z,6.03
2017-09-02T20:54:40.486Z,6.67
2017-09-02T20:57:08.008Z,6.73
2017-09-02T20:59:35.735Z,6.57
2017-09-02T21:02:03.234Z,6.20
2017-09-02T21:04:30.758Z,6.60
2017-09-02T21:06:58.278Z,6.50
2017-09-02T21:09:25.867Z,7.10
2017-09-02T21:11:53.623Z,8.47
2017-09-02T21:14:21.118Z,7.00
2017-09-02T21:16:48.641Z,7.80
2017-09-02T21:19:16.259Z,7.60
2017-09-02T21:21:43.787Z,7.43
2017-09-02T21:24:11.519Z,7.43
2017-09-02T21:26:39.305Z,8.30
2017-09-02T21:29:06.812Z,7.60
2017-09-02T21:31:34.514Z,7.30
2017-09-02T21:34:02.269Z,6.77
2017-09-02T21:36:30.051Z,7.23
2017-09-02T21:38:57.815Z,7.37
2017-09-02T21:41:25.359Z,7.33
2017-09-02T21:43:53.920Z,7.93
2017-09-02T21:46:21.700Z,7.03
2017-09-02T21:48:49.216Z,7.70
2017-09-02T21:51:17.211Z,8.27
2017-09-02T21:53:45.303Z,7.87
2017-09-02T21:56:13.088Z,8.80
2017-09-02T21:58:40.824Z,7.70
2017-09-02T22:01:08.364Z,8.63
2017-09-02T22:03:36.044Z,8.00
2017-09-02T22:06:03.807Z,9.20
2017-09-02T22:08:31.352Z,8.77
2017-09-02T22:10:59.005Z,8.07
2017-09-02T22:13:26.531Z,8.33
2017-09-02T22:15:54.239Z,8.13
2017-09-02T22:18:21.763Z,8.20
2017-09-02T22:20:49.329Z,7.90
2017-09-02T22:23:16.839Z,8.80
2017-09-02T22:25:44.401Z,8.53
2017-09-02T22:28:11.927Z,8.77
2017-09-02T22:30:39.441Z,8.87
2017-09-02T22:33:06.940Z,8.63
2017-09-02T22:35:34.445Z,7.63
2017-09-02T22:38:01.979Z,8.43
2017-09-02T22:40:29.528Z,9.70
2017-09-02T22:42:57.136Z,8.07
2017-09-02T22:45:24.671Z,9.27
2017-09-02T22:47:52.191Z,7.73
2017-09-02T22:50:20.053Z,9.00
2017-09-02T22:52:48.415Z,8.63
2017-09-02T22:55:16.719Z,7.80
2017-09-02T22:57:44.470Z,9.03
2017-09-02T23:00:12.020Z,8.67
2017-09-02T23:02:39.522Z,8.30
2017-09-02T23:05:07.019Z,9.10
2017-09-02T23:07:34.528Z,8.47
2017-09-02T23:10:02.066Z,9.30
2017-09-02T23:12:29.603Z,7.87
2017-09-02T23:14:57.095Z,8.83
2017-09-02T23:17:24.884Z,8.00
2017-09-02T23:19:52.404Z,9.07
2017-09-02T23:22:19.958Z,9.20
2017-09-02T23:24:47.558Z,7.70
2017-09-02T23:27:15.063Z,8.50
2017-09-02T23:29:42.563Z,9.07
2017-09-02T23:32:10.089Z,7.80
2017-09-02T23:34:37.853Z,8.40
2017-09-02T23:37:05.436Z,7.47
2017-09-02T23:39:32.931Z,7.93
2017-09-02T23:42:00.452Z,8.63
2017-09-02T23:44:28.911Z,7.60
2017-09-02T23:46:56.417Z,8.33
2017-09-02T23:49:24.131Z,6.73
2017-09-02T23:51:52.408Z,8.20
2017-09-02T23:54:20.111Z,7.47
2017-09-02T23:56:47.605Z,7.57
2017-09-02T23:59:15.284Z,7.67
